Time;durP1;ratioP1;P1;durP2;ratioP2;P2;SDS_P1;SDS_P2;PMS_P1;PMS_P2;Temp;Humidity;BMP_temperature;BMP_pressure;BME280_temperature;BME280_humidity;BME280_pressure;Samples;Min_cycle;Max_cycle;Signal;HPM_P1;HPM_P2
2023/06/09 00:01:35;;;;;;;15.15;5.40;;;14.40;99.90;;;;;;5070166;28;20068;-59
2023/06/09 00:04:06;;;;;;;11.02;4.53;;;14.30;99.90;;;;;;5052196;28;20040;-58
2023/06/09 00:06:33;;;;;;;14.68;5.05;;;14.30;99.90;;;;;;5070511;28;20111;-59
2023/06/09 00:08:58;;;;;;;13.32;4.82;;;14.20;99.90;;;;;;5070423;28;20044;-59
2023/06/09 00:11:25;;;;;;;14.02;5.05;;;14.20;99.90;;;;;;5070528;28;20073;-58
2023/06/09 00:13:51;;;;;;;13.20;5.18;;;14.20;99.90;;;;;;5070187;28;20032;-58
2023/06/09 00:16:17;;;;;;;13.98;5.45;;;14.20;99.90;;;;;;5070430;28;20553;-58
2023/06/09 00:18:43;;;;;;;13.98;5.22;;;14.20;99.90;;;;;;5070291;28;20091;-58
2023/06/09 00:21:10;;;;;;;12.40;4.78;;;14.30;99.90;;;;;;5051932;28;20165;-59
2023/06/09 00:23:36;;;;;;;12.55;4.63;;;14.30;99.90;;;;;;5070613;28;20506;-59
2023/06/09 00:26:02;;;;;;;13.13;4.80;;;14.20;99.90;;;;;;5069665;28;20048;-58
2023/06/09 00:28:27;;;;;;;16.25;5.20;;;14.20;99.90;;;;;;5070328;28;20043;-59
2023/06/09 00:30:53;;;;;;;12.60;4.82;;;14.20;99.90;;;;;;5058622;28;20033;-59
2023/06/09 00:33:19;;;;;;;14.95;5.28;;;14.10;99.90;;;;;;5050196;28;20407;-58
2023/06/09 00:35:44;;;;;;;13.18;5.20;;;14.00;99.90;;;;;;5050258;28;20073;-60
2023/06/09 00:38:10;;;;;;;15.50;5.38;;;14.00;99.90;;;;;;5050725;28;20532;-60
2023/06/09 00:40:36;;;;;;;15.57;5.15;;;14.10;99.90;;;;;;5054292;28;20377;-58
2023/06/09 00:43:04;;;;;;;14.10;5.07;;;14.00;99.90;;;;;;5069977;28;20036;-59
2023/06/09 00:45:29;;;;;;;12.70;5.35;;;14.00;99.90;;;;;;5035960;28;20045;-58
2023/06/09 00:47:55;;;;;;;13.52;5.05;;;14.00;99.90;;;;;;5069725;28;20660;-59
2023/06/09 00:50:21;;;;;;;13.52;5.40;;;13.90;99.90;;;;;;5070599;28;20033;-58
2023/06/09 00:52:48;;;;;;;12.40;4.38;;;13.90;99.90;;;;;;5051868;28;20048;-58
2023/06/09 00:55:17;;;;;;;12.70;5.18;;;13.90;99.90;;;;;;5052129;28;20051;-58
2023/06/09 00:57:43;;;;;;;14.13;5.25;;;13.90;99.90;;;;;;5069414;28;20053;-57
2023/06/09 01:00:13;;;;;;;12.30;5.20;;;13.90;99.90;;;;;;5070047;28;20040;-58
2023/06/09 01:02:39;;;;;;;14.35;5.45;;;13.90;99.90;;;;;;5072289;28;20040;-58
2023/06/09 01:05:08;;;;;;;15.05;4.70;;;13.90;99.90;;;;;;5055727;28;20036;-58
2023/06/09 01:07:54;;;;;;;13.95;4.85;;;13.90;99.90;;;;;;5056155;28;20475;-58
2023/06/09 01:10:31;;;;;;;12.25;4.93;;;13.90;99.90;;;;;;5056256;28;20365;-58
2023/06/09 01:13:16;;;;;;;11.95;3.88;;;13.90;99.90;;;;;;5073779;28;20112;-57
2023/06/09 01:15:47;;;;;;;;;;;13.80;99.90;;;;;;5074235;28;20085;-58
2023/06/09 01:18:15;;;;;;;13.00;5.30;;;13.70;99.90;;;;;;5073773;28;19924;-57
2023/06/09 01:20:45;;;;;;;15.63;5.40;;;13.70;99.90;;;;;;5073480;28;20044;-58
2023/06/09 01:23:44;;;;;;;14.80;5.50;;;13.70;99.90;;;;;;5071986;28;20041;-60
2023/06/09 01:26:10;;;;;;;14.85;5.82;;;13.80;99.90;;;;;;5067114;28;20054;-59
2023/06/09 01:28:38;;;;;;;17.70;5.40;;;13.80;99.90;;;;;;5073557;28;20083;-57
2023/06/09 01:31:05;;;;;;;14.63;5.57;;;13.80;99.90;;;;;;5073661;28;20040;-59
2023/06/09 01:33:31;;;;;;;15.25;6.03;;;13.80;99.90;;;;;;5073453;28;20036;-59
2023/06/09 01:35:57;;;;;;;14.93;6.60;;;13.80;99.90;;;;;;5073299;28;20044;-59
2023/06/09 01:38:24;;;;;;;13.77;5.93;;;13.80;99.90;;;;;;5073524;28;20119;-58
2023/06/09 01:40:50;;;;;;;16.27;5.18;;;13.80;99.90;;;;;;5073225;28;20036;-59
2023/06/09 01:43:17;;;;;;;14.98;5.35;;;13.80;99.90;;;;;;5073047;28;20040;-59
2023/06/09 01:45:42;;;;;;;14.45;5.57;;;13.80;99.90;;;;;;5073054;28;20036;-58
2023/06/09 01:48:30;;;;;;;11.43;4.10;;;13.70;99.90;;;;;;5073286;28;20040;-61
2023/06/09 01:51:04;;;;;;;16.58;6.05;;;13.70;99.90;;;;;;5073105;28;20041;-59
2023/06/09 01:53:34;;;;;;;16.63;5.82;;;13.70;99.90;;;;;;5073132;28;20036;-58
2023/06/09 01:56:13;;;;;;;16.48;5.78;;;13.60;99.90;;;;;;5054389;28;20123;-58
2023/06/09 01:58:46;;;;;;;17.70;6.28;;;13.60;99.90;;;;;;5073015;28;20140;-60
2023/06/09 02:01:15;;;;;;;15.30;6.53;;;13.60;99.90;;;;;;5072708;28;20079;-59
2023/06/09 02:03:42;;;;;;;15.20;6.55;;;13.60;99.90;;;;;;5072679;28;20044;-58
2023/06/09 02:06:10;;;;;;;16.35;5.05;;;13.60;99.90;;;;;;5072608;28;20119;-58
2023/06/09 02:08:37;;;;;;;16.73;6.47;;;13.60;99.90;;;;;;5055160;28;20059;-59
2023/06/09 02:11:03;;;;;;;17.40;6.72;;;13.60;99.90;;;;;;5072964;28;20412;-58
2023/06/09 02:13:29;;;;;;;14.80;6.60;;;13.60;99.90;;;;;;5072141;28;20094;-58
2023/06/09 02:15:55;;;;;;;15.20;5.55;;;13.60;99.90;;;;;;5072708;28;20040;-57
2023/06/09 02:18:21;;;;;;;20.15;5.88;;;13.60;99.90;;;;;;5072286;28;20032;-59
2023/06/09 02:20:48;;;;;;;19.13;6.85;;;13.60;99.90;;;;;;5071675;28;20044;-59
2023/06/09 02:23:18;;;;;;;14.77;6.40;;;13.50;99.90;;;;;;5070669;28;20089;-59
2023/06/09 02:25:43;;;;;;;17.77;7.32;;;13.60;99.90;;;;;;5071417;28;20185;-59
2023/06/09 02:28:11;;;;;;;15.65;7.28;;;13.60;99.90;;;;;;5070511;28;20045;-59
2023/06/09 02:30:37;;;;;;;17.00;7.28;;;13.60;99.90;;;;;;5071020;28;20041;-60
2023/06/09 02:33:03;;;;;;;15.70;5.93;;;13.50;99.90;;;;;;5071675;28;20049;-58
2023/06/09 02:35:29;;;;;;;19.95;7.55;;;13.60;99.90;;;;;;5053452;28;20076;-58
2023/06/09 02:37:57;;;;;;;19.58;8.10;;;13.50;99.90;;;;;;5053298;28;20041;-59
2023/06/09 02:40:25;;;;;;;17.52;7.30;;;13.50;99.90;;;;;;5071159;28;20098;-59
2023/06/09 02:42:51;;;;;;;19.80;8.27;;;13.40;99.90;;;;;;5071327;28;20041;-59
2023/06/09 02:45:17;;;;;;;16.65;7.50;;;13.40;99.90;;;;;;5053321;28;20036;-59
2023/06/09 02:47:42;;;;;;;21.58;7.65;;;13.30;99.90;;;;;;5071278;28;20043;-58
2023/06/09 02:50:08;;;;;;;15.98;5.65;;;13.30;99.90;;;;;;5071561;28;20060;-59
2023/06/09 02:52:34;;;;;;;16.70;7.53;;;13.30;99.90;;;;;;5070919;28;20549;-58
2023/06/09 02:55:00;;;;;;;16.50;7.40;;;13.30;99.90;;;;;;5052780;28;20032;-59
2023/06/09 02:57:26;;;;;;;15.65;8.18;;;13.30;99.90;;;;;;5070143;28;20060;-59
2023/06/09 02:59:52;;;;;;;16.73;7.03;;;13.30;99.90;;;;;;5071093;28;20040;-60
2023/06/09 03:02:18;;;;;;;17.63;6.25;;;13.20;99.90;;;;;;5052957;28;20036;-58
2023/06/09 03:04:43;;;;;;;15.88;6.10;;;13.20;99.90;;;;;;5071045;28;20072;-59
2023/06/09 03:07:13;;;;;;;16.45;7.78;;;13.10;99.90;;;;;;5070796;28;20064;-58
2023/06/09 03:09:43;;;;;;;17.42;8.10;;;13.10;99.90;;;;;;5070788;28;20119;-59
2023/06/09 03:12:09;;;;;;;17.63;7.93;;;13.10;99.90;;;;;;5052887;28;20123;-58
2023/06/09 03:14:35;;;;;;;18.20;8.20;;;13.10;99.90;;;;;;5071064;28;20523;-58
2023/06/09 03:17:01;;;;;;;18.60;8.27;;;13.10;99.90;;;;;;5070478;28;20076;-57
2023/06/09 03:19:27;;;;;;;15.57;5.88;;;13.00;99.90;;;;;;5052862;28;20044;-59
2023/06/09 03:21:53;;;;;;;19.02;7.90;;;13.00;99.90;;;;;;5070725;28;20082;-59
2023/06/09 03:24:19;;;;;;;16.75;7.90;;;13.00;99.90;;;;;;5069549;28;20033;-59
2023/06/09 03:26:48;;;;;;;15.43;8.07;;;13.00;99.90;;;;;;5069796;28;20044;-58
2023/06/09 03:29:14;;;;;;;18.17;8.43;;;13.00;99.90;;;;;;5070819;28;20545;-59
2023/06/09 03:31:40;;;;;;;18.00;8.35;;;13.00;99.90;;;;;;5070270;28;20044;-59
2023/06/09 03:34:06;;;;;;;19.00;8.20;;;13.00;99.90;;;;;;5070276;28;20483;-58
2023/06/09 03:36:35;;;;;;;18.25;8.15;;;13.00;99.90;;;;;;5070551;28;20055;-58
2023/06/09 03:39:01;;;;;;;19.67;8.52;;;12.90;99.90;;;;;;5068729;28;20073;-59
2023/06/09 03:41:27;;;;;;;20.73;9.18;;;12.90;99.90;;;;;;5070569;28;20064;-59
2023/06/09 03:43:52;;;;;;;19.23;8.98;;;12.80;99.90;;;;;;5065670;28;20633;-58
2023/06/09 03:46:18;;;;;;;15.60;8.38;;;12.80;99.90;;;;;;5070094;28;20039;-58
2023/06/09 03:48:44;;;;;;;19.20;9.15;;;12.80;99.90;;;;;;5069745;28;20376;-60
2023/06/09 03:51:09;;;;;;;19.17;8.60;;;12.80;99.90;;;;;;5070145;28;20443;-58
2023/06/09 03:53:35;;;;;;;19.83;8.82;;;12.80;99.90;;;;;;5070009;28;20162;-60
2023/06/09 03:56:01;;;;;;;18.65;8.32;;;12.80;99.90;;;;;;5070018;28;20040;-59
2023/06/09 03:58:27;;;;;;;21.45;9.45;;;12.80;99.90;;;;;;5069916;28;20076;-60
2023/06/09 04:00:54;;;;;;;21.58;7.45;;;12.80;99.90;;;;;;5070183;28;20089;-60
2023/06/09 04:03:22;;;;;;;18.25;7.28;;;12.80;99.90;;;;;;5070225;28;20395;-60
2023/06/09 04:05:48;;;;;;;19.05;9.85;;;12.70;99.90;;;;;;5069904;28;20047;-59
2023/06/09 04:08:14;;;;;;;20.30;9.35;;;12.80;99.90;;;;;;5063134;28;20342;-59
2023/06/09 04:10:40;;;;;;;24.48;10.05;;;12.80;99.90;;;;;;5051525;28;20047;-60
2023/06/09 04:13:08;;;;;;;21.58;10.52;;;12.90;99.90;;;;;;5052137;28;20051;-59
2023/06/09 04:15:33;;;;;;;18.50;9.95;;;12.80;99.90;;;;;;5069826;28;20048;-59
2023/06/09 04:18:01;;;;;;;20.50;10.02;;;12.80;99.90;;;;;;5069773;28;20120;-59
2023/06/09 04:20:27;;;;;;;19.98;8.15;;;12.80;99.90;;;;;;5069801;28;20522;-59
2023/06/09 04:22:54;;;;;;;18.75;9.65;;;12.80;99.90;;;;;;5069574;28;20036;-60
2023/06/09 04:25:25;;;;;;;22.13;10.32;;;12.80;99.90;;;;;;5069763;28;20033;-58
2023/06/09 04:27:55;;;;;;;25.15;9.07;;;12.80;99.90;;;;;;5051244;28;20043;-60
2023/06/09 04:30:25;;;;;;;17.42;10.63;;;12.80;99.90;;;;;;5069786;28;20033;-59
2023/06/09 04:32:52;;;;;;;25.17;8.43;;;12.80;99.90;;;;;;5070045;28;20043;-59
2023/06/09 04:35:22;;;;;;;21.55;10.70;;;12.80;99.90;;;;;;5069271;28;20376;-59
2023/06/09 04:37:49;;;;;;;20.70;10.63;;;12.80;99.90;;;;;;5062617;28;21421;-59
2023/06/09 04:40:22;;;;;;;16.98;9.98;;;12.90;99.90;;;;;;5049641;28;20077;-59
2023/06/09 04:42:52;;;;;;;21.20;10.77;;;12.90;99.90;;;;;;5067306;28;20036;-60
2023/06/09 04:45:34;;;;;;;19.83;10.20;;;13.00;99.90;;;;;;5068350;28;20037;-60
2023/06/09 04:48:00;;;;;;;22.17;7.95;;;13.00;99.90;;;;;;5052678;28;20043;-60
2023/06/09 04:50:29;;;;;;;23.08;10.48;;;13.00;99.90;;;;;;5069094;28;20090;-60
2023/06/09 04:52:58;;;;;;;20.08;9.85;;;13.10;99.90;;;;;;5069499;28;20036;-59
2023/06/09 04:55:26;;;;;;;22.63;11.35;;;13.10;99.90;;;;;;5069248;28;20037;-59
2023/06/09 04:57:55;;;;;;;21.55;10.93;;;13.10;99.90;;;;;;5069093;28;20193;-58
2023/06/09 05:00:22;;;;;;;18.88;10.63;;;13.30;99.90;;;;;;5068913;28;20069;-58
2023/06/09 05:02:49;;;;;;;20.20;7.75;;;13.30;99.90;;;;;;5069392;28;20037;-59
2023/06/09 05:05:15;;;;;;;22.00;10.77;;;13.30;99.90;;;;;;5069582;28;20040;-59
2023/06/09 05:07:41;;;;;;;24.67;8.93;;;13.30;99.90;;;;;;5069199;28;20075;-59
2023/06/09 05:10:08;;;;;;;22.15;10.57;;;13.40;99.90;;;;;;5068997;28;20036;-60
2023/06/09 05:12:35;;;;;;;19.80;11.07;;;13.50;99.90;;;;;;5069271;28;20112;-58
2023/06/09 05:15:02;;;;;;;17.88;10.38;;;13.50;99.90;;;;;;5068995;28;20037;-58
2023/06/09 05:17:28;;;;;;;21.98;10.55;;;13.60;99.90;;;;;;5059922;28;20048;-59
2023/06/09 05:19:53;;;;;;;20.50;10.00;;;13.60;99.90;;;;;;5049418;28;20388;-59
2023/06/09 05:22:19;;;;;;;21.42;8.15;;;13.80;99.90;;;;;;5049268;28;20119;-59
2023/06/09 05:24:45;;;;;;;19.33;8.13;;;13.80;99.90;;;;;;5049126;28;20037;-58
2023/06/09 05:27:11;;;;;;;19.55;8.10;;;13.70;99.90;;;;;;5048941;28;20087;-60
2023/06/09 05:29:37;;;;;;;20.40;8.80;;;13.80;99.90;;;;;;5050524;28;20132;-59
2023/06/09 05:32:03;;;;;;;22.73;11.05;;;13.80;99.90;;;;;;5069109;28;20037;-60
2023/06/09 05:34:30;;;;;;;22.17;10.48;;;13.90;99.90;;;;;;5031142;28;20059;-58
2023/06/09 05:36:56;;;;;;;19.85;9.93;;;14.00;99.90;;;;;;5049565;28;20052;-59
2023/06/09 05:39:22;;;;;;;19.95;8.38;;;14.00;99.90;;;;;;5048821;28;20354;-59
2023/06/09 05:41:48;;;;;;;18.58;9.82;;;14.10;99.90;;;;;;5049099;28;20033;-60
2023/06/09 05:44:14;;;;;;;19.08;10.10;;;14.20;99.90;;;;;;5033814;28;20060;-61
2023/06/09 05:46:40;;;;;;;22.13;10.18;;;14.20;99.90;;;;;;5068580;28;20040;-59
2023/06/09 05:49:05;;;;;;;22.23;7.85;;;14.30;99.90;;;;;;5064274;28;20045;-60
2023/06/09 05:51:33;;;;;;;18.13;9.75;;;14.40;99.90;;;;;;5052482;28;20033;-60
2023/06/09 05:53:59;;;;;;;19.63;9.95;;;14.40;99.90;;;;;;5052395;28;20559;-59
2023/06/09 05:56:25;;;;;;;21.02;8.02;;;14.50;99.90;;;;;;5060731;28;20105;-60
2023/06/09 05:58:51;;;;;;;20.75;9.85;;;14.60;99.90;;;;;;5037575;28;20102;-59
2023/06/09 06:01:17;;;;;;;23.35;10.30;;;14.70;99.90;;;;;;5072647;28;20074;-60
2023/06/09 06:03:44;;;;;;;17.63;9.13;;;14.70;99.90;;;;;;5072063;28;20025;-60
2023/06/09 06:06:10;;;;;;;17.52;9.32;;;14.80;99.90;;;;;;5072570;28;20043;-60
2023/06/09 06:08:38;;;;;;;20.60;9.85;;;14.90;99.90;;;;;;5072391;28;20048;-59
2023/06/09 06:11:04;;;;;;;18.70;9.30;;;14.90;99.90;;;;;;5071674;28;20036;-57
2023/06/09 06:13:30;;;;;;;20.67;9.57;;;15.00;99.90;;;;;;5053291;28;20649;-59
2023/06/09 06:15:57;;;;;;;17.58;9.20;;;15.10;99.90;;;;;;5072778;28;20044;-58
2023/06/09 06:18:23;;;;;;;17.63;8.57;;;15.20;99.90;;;;;;5065430;28;20040;-59
2023/06/09 06:20:49;;;;;;;19.08;9.07;;;15.30;99.90;;;;;;5046224;28;20048;-61
2023/06/09 06:23:14;;;;;;;20.77;9.88;;;15.40;99.90;;;;;;5064060;28;20032;-59
2023/06/09 06:25:41;;;;;;;18.30;9.40;;;15.50;99.90;;;;;;5065036;28;20043;-58
2023/06/09 06:28:07;;;;;;;18.25;8.10;;;15.60;99.90;;;;;;5064450;28;20060;-59
2023/06/09 06:30:33;;;;;;;18.25;8.90;;;15.60;99.90;;;;;;5064451;28;20045;-60
2023/06/09 06:32:59;;;;;;;16.20;8.88;;;15.70;99.90;;;;;;5064565;28;20065;-59
2023/06/09 06:35:28;;;;;;;18.92;9.05;;;15.80;99.90;;;;;;5062321;28;20045;-59
2023/06/09 06:37:55;;;;;;;20.27;8.80;;;15.90;99.90;;;;;;5061181;28;20044;-58
2023/06/09 06:40:22;;;;;;;18.35;8.60;;;16.00;99.90;;;;;;5062884;28;20456;-59
2023/06/09 06:42:47;;;;;;;16.17;7.82;;;16.00;99.90;;;;;;5062767;28;20103;-59
2023/06/09 06:45:14;;;;;;;18.05;8.02;;;16.20;99.90;;;;;;5063923;28;20560;-58
2023/06/09 06:47:41;;;;;;;19.92;9.00;;;16.20;99.90;;;;;;5046382;28;20154;-59
2023/06/09 06:50:08;;;;;;;17.45;7.65;;;16.40;99.90;;;;;;5064781;28;21427;-59
2023/06/09 06:52:34;;;;;;;16.65;8.52;;;16.50;99.90;;;;;;5064915;28;20039;-60
2023/06/09 06:54:59;;;;;;;17.35;8.18;;;16.60;99.90;;;;;;5064116;28;20045;-60
2023/06/09 06:57:26;;;;;;;17.30;8.18;;;16.60;99.90;;;;;;5064255;28;20061;-59
2023/06/09 06:59:52;;;;;;;15.75;8.35;;;16.80;99.90;;;;;;5066279;28;20068;-60
2023/06/09 07:02:18;;;;;;;17.42;9.02;;;16.90;99.90;;;;;;5063201;28;20060;-60
2023/06/09 07:04:43;;;;;;;15.07;7.95;;;17.00;99.90;;;;;;5064111;28;20041;-59
2023/06/09 07:07:09;;;;;;;16.67;8.90;;;17.10;99.90;;;;;;5064225;28;20043;-60
2023/06/09 07:09:36;;;;;;;15.18;8.32;;;17.10;99.90;;;;;;5065415;28;20044;-59
2023/06/09 07:12:02;;;;;;;14.65;8.32;;;17.20;99.90;;;;;;5065091;28;20033;-60
2023/06/09 07:14:29;;;;;;;17.02;8.65;;;17.30;99.90;;;;;;5063801;28;20036;-61
2023/06/09 07:16:55;;;;;;;16.83;7.78;;;17.40;99.90;;;;;;5063748;28;20106;-60
2023/06/09 07:19:21;;;;;;;15.63;8.35;;;17.50;99.90;;;;;;5062707;28;20044;-61
2023/06/09 07:21:46;;;;;;;16.33;7.80;;;17.60;99.90;;;;;;5063945;28;20024;-60
2023/06/09 07:24:12;;;;;;;16.15;8.45;;;17.70;99.90;;;;;;5062997;28;20430;-58
2023/06/09 07:26:38;;;;;;;15.25;8.68;;;17.70;99.90;;;;;;5062178;28;20047;-60
2023/06/09 07:29:03;;;;;;;16.35;7.40;;;17.80;99.90;;;;;;5062205;28;20036;-59
2023/06/09 07:31:30;;;;;;;15.18;8.15;;;17.90;99.90;;;;;;5063236;28;20075;-59
2023/06/09 07:33:56;;;;;;;17.05;8.55;;;18.00;99.90;;;;;;5061678;28;20434;-61
2023/06/09 07:36:22;;;;;;;15.80;8.18;;;18.00;99.90;;;;;;5063844;28;20048;-61
2023/06/09 07:38:47;;;;;;;14.45;8.18;;;18.10;99.90;;;;;;5061938;28;20082;-59
2023/06/09 07:41:14;;;;;;;14.13;8.23;;;18.10;99.90;;;;;;5063490;28;20036;-58
2023/06/09 07:43:40;;;;;;;18.25;8.57;;;18.20;99.90;;;;;;5062747;28;20029;-59
2023/06/09 07:46:07;;;;;;;16.67;7.80;;;18.30;99.90;;;;;;5061976;28;20099;-60
2023/06/09 07:48:32;;;;;;;15.77;7.97;;;18.40;99.90;;;;;;5062031;28;20040;-58
2023/06/09 07:50:58;;;;;;;16.02;8.38;;;18.40;99.90;;;;;;5062336;28;20041;-58
2023/06/09 07:53:24;;;;;;;13.90;8.00;;;18.50;99.90;;;;;;5062334;28;20103;-59
2023/06/09 07:55:50;;;;;;;13.82;7.95;;;18.60;99.90;;;;;;5061444;28;20083;-60
2023/06/09 07:58:15;;;;;;;16.92;7.40;;;18.60;99.90;;;;;;5061192;28;20389;-59
2023/06/09 08:00:41;;;;;;;17.20;7.50;;;18.80;99.90;;;;;;5043228;28;20467;-60
2023/06/09 08:03:07;;;;;;;15.90;7.43;;;18.90;99.90;;;;;;5062179;28;20040;-59
2023/06/09 08:05:33;;;;;;;18.08;7.13;;;19.00;99.90;;;;;;5061695;28;20032;-60
2023/06/09 08:08:00;;;;;;;14.68;7.47;;;19.00;99.90;;;;;;5041080;28;20446;-60
2023/06/09 08:10:26;;;;;;;13.07;7.05;;;19.20;99.90;;;;;;5058681;28;20055;-60
2023/06/09 08:12:52;;;;;;;15.77;6.75;;;19.20;99.90;;;;;;5059223;28;20189;-60
2023/06/09 08:15:18;;;;;;;16.70;6.95;;;19.30;99.90;;;;;;5024725;28;20033;-59
2023/06/09 08:17:44;;;;;;;15.88;7.00;;;19.40;99.90;;;;;;5056150;28;20044;-59
2023/06/09 08:20:10;;;;;;;13.25;6.45;;;19.50;99.90;;;;;;5059906;28;20035;-59
2023/06/09 08:22:36;;;;;;;12.27;6.53;;;19.60;99.90;;;;;;5047120;28;20044;-60
2023/06/09 08:25:03;;;;;;;16.60;6.47;;;19.70;99.90;;;;;;5060261;28;20543;-60
2023/06/09 08:27:28;;;;;;;15.40;6.55;;;19.80;99.90;;;;;;5061618;28;20400;-60
2023/06/09 08:29:54;;;;;;;13.15;6.57;;;19.90;99.90;;;;;;5047036;28;20106;-60
2023/06/09 08:32:20;;;;;;;13.52;6.15;;;19.90;99.90;;;;;;5064379;28;20089;-60
2023/06/09 08:34:45;;;;;;;11.27;6.10;;;20.10;99.90;;;;;;5041464;28;20067;-61
2023/06/09 08:37:12;;;;;;;12.93;5.70;;;20.10;99.90;;;;;;5053948;28;20105;-58
2023/06/09 08:39:38;;;;;;;14.15;6.20;;;20.20;99.90;;;;;;5057796;28;20051;-59
2023/06/09 08:42:07;;;;;;;12.93;5.82;;;20.30;99.90;;;;;;5055612;28;20041;-61
2023/06/09 08:44:42;;;;;;;10.30;5.70;;;20.50;99.90;;;;;;5061003;28;20036;-59
2023/06/09 08:47:11;;;;;;;11.98;5.30;;;20.60;99.90;;;;;;5052741;28;20045;-58
2023/06/09 08:49:37;;;;;;;11.90;5.90;;;20.70;99.90;;;;;;5062393;28;20116;-56
2023/06/09 08:52:07;;;;;;;12.23;6.00;;;20.80;99.90;;;;;;5053460;28;20155;-59
2023/06/09 08:54:33;;;;;;;9.30;5.68;;;20.90;99.90;;;;;;5054470;28;20036;-60
2023/06/09 08:56:59;;;;;;;12.80;5.82;;;21.00;99.90;;;;;;5065711;28;20041;-58
2023/06/09 08:59:30;;;;;;;9.77;5.55;;;21.10;99.90;;;;;;5050100;28;20047;-59
2023/06/09 09:01:56;;;;;;;14.32;5.68;;;21.30;99.90;;;;;;5031233;28;20045;-58
2023/06/09 09:04:22;;;;;;;11.82;5.65;;;21.40;99.90;;;;;;5050132;28;20041;-58
2023/06/09 09:06:48;;;;;;;11.75;6.70;;;21.60;99.90;;;;;;5050089;28;20041;-59
2023/06/09 09:09:13;;;;;;;12.05;6.40;;;21.70;99.90;;;;;;5050403;28;20086;-59
2023/06/09 09:11:40;;;;;;;11.65;5.60;;;21.80;99.90;;;;;;5050252;28;20044;-58
2023/06/09 09:14:10;;;;;;;12.65;6.38;;;22.00;99.90;;;;;;5050094;28;20083;-59
2023/06/09 09:16:35;;;;;;;11.05;5.97;;;22.10;99.90;;;;;;5050116;28;20048;-59
2023/06/09 09:19:03;;;;;;;13.95;6.00;;;22.30;99.90;;;;;;5050375;28;20041;-59
2023/06/09 09:21:29;;;;;;;13.48;5.93;;;22.50;99.90;;;;;;5050069;28;20044;-58
2023/06/09 09:24:03;;;;;;;13.57;5.95;;;22.60;99.90;;;;;;5052670;28;20037;-60
2023/06/09 09:26:30;;;;;;;10.85;5.63;;;22.80;99.90;;;;;;5054979;28;20165;-58
2023/06/09 09:29:01;;;;;;;11.85;5.25;;;23.00;99.90;;;;;;5055841;28;20557;-58
2023/06/09 09:31:35;;;;;;;10.27;5.47;;;23.10;99.90;;;;;;5073842;28;20033;-59
2023/06/09 09:34:01;;;;;;;9.30;5.50;;;23.30;99.90;;;;;;5050521;28;20052;-58
2023/06/09 09:36:27;;;;;;;11.85;5.30;;;23.50;99.90;;;;;;5054056;28;20481;-60
2023/06/09 09:38:56;;;;;;;10.10;5.53;;;23.60;99.90;;;;;;5054131;28;20427;-58
2023/06/09 09:41:21;;;;;;;11.38;4.95;;;23.70;99.90;;;;;;5055608;28;20033;-59
2023/06/09 09:43:47;;;;;;;12.88;5.35;;;23.80;99.90;;;;;;5074070;28;20369;-58
2023/06/09 09:46:19;;;;;;;9.95;5.20;;;24.00;99.90;;;;;;5073746;28;20032;-58
2023/06/09 09:48:47;;;;;;;10.77;5.78;;;24.10;99.90;;;;;;5073671;28;20113;-59
2023/06/09 09:51:13;;;;;;;10.05;5.40;;;24.30;99.90;;;;;;5073856;28;20560;-60
2023/06/09 09:53:43;;;;;;;13.05;5.97;;;24.30;99.90;;;;;;5073726;28;20127;-57
2023/06/09 09:56:09;;;;;;;10.88;5.70;;;24.40;99.90;;;;;;5055447;28;20044;-60
2023/06/09 09:58:37;;;;;;;11.13;5.00;;;24.40;99.90;;;;;;5052566;28;20470;-58
2023/06/09 10:01:05;;;;;;;12.00;5.60;;;24.50;99.90;;;;;;5035019;28;20107;-58
2023/06/09 10:03:33;;;;;;;8.35;5.55;;;24.60;99.90;;;;;;5034764;28;20116;-60
2023/06/09 10:06:02;;;;;;;13.18;5.15;;;24.70;99.90;;;;;;5053117;28;20037;-58
2023/06/09 10:08:30;;;;;;;12.70;5.45;;;24.80;99.90;;;;;;5051945;28;20069;-59
2023/06/09 10:10:57;;;;;;;10.95;5.45;;;24.90;99.90;;;;;;5052577;28;20040;-60
2023/06/09 10:13:26;;;;;;;13.50;5.15;;;25.00;99.90;;;;;;5052772;28;20040;-60
2023/06/09 10:15:56;;;;;;;9.82;5.00;;;25.10;99.90;;;;;;5053007;28;20084;-60
2023/06/09 10:18:23;;;;;;;11.25;5.38;;;25.20;99.90;;;;;;5052812;28;20611;-59
2023/06/09 10:20:50;;;;;;;10.20;5.60;;;25.20;99.90;;;;;;5034544;28;20090;-59
2023/06/09 10:23:17;;;;;;;12.32;5.57;;;25.20;99.60;;;;;;5034452;28;20102;-59
2023/06/09 10:25:46;;;;;;;9.07;4.93;;;25.30;99.50;;;;;;5052172;28;20040;-58
2023/06/09 10:28:15;;;;;;;9.40;5.45;;;25.30;99.40;;;;;;5052031;28;20040;-59
2023/06/09 10:30:40;;;;;;;8.82;5.28;;;25.40;99.70;;;;;;5052367;28;20044;-60
2023/06/09 10:33:26;;;;;;;10.02;4.95;;;25.60;99.50;;;;;;5054026;28;20048;-59
2023/06/09 10:35:58;;;;;;;9.57;4.78;;;25.70;98.60;;;;;;5054769;28;20052;-58
2023/06/09 10:38:30;;;;;;;10.93;5.40;;;25.80;99.10;;;;;;5069163;28;20037;-59
2023/06/09 10:41:07;;;;;;;11.45;4.95;;;25.90;99.20;;;;;;5052719;28;20128;-59
2023/06/09 10:44:10;;;;;;;9.57;5.13;;;26.00;98.50;;;;;;5052005;28;20530;-59
2023/06/09 10:46:43;;;;;;;9.35;4.97;;;26.10;98.20;;;;;;5051745;28;20039;-60
2023/06/09 10:49:35;;;;;;;8.80;4.65;;;26.10;98.40;;;;;;5051732;28;20044;-59
2023/06/09 10:52:28;;;;;;;12.93;5.50;;;26.30;98.40;;;;;;5043468;28;20044;-60
2023/06/09 10:55:13;;;;;;;9.93;4.88;;;26.40;98.10;;;;;;5021253;28;20496;-58
2023/06/09 10:57:39;;;;;;;10.75;4.72;;;26.60;97.80;;;;;;5051335;28;20065;-59
2023/06/09 11:00:11;;;;;;;8.63;4.38;;;26.60;98.00;;;;;;5052367;28;20049;-59
2023/06/09 11:02:42;;;;;;;8.93;4.25;;;26.70;97.70;;;;;;5064548;28;20123;-60
2023/06/09 11:05:08;;;;;;;10.57;4.38;;;26.80;97.60;;;;;;5071659;28;20111;-61
2023/06/09 11:08:03;;;;;;;8.52;4.80;;;26.90;97.40;;;;;;5053882;28;20051;-59
2023/06/09 11:10:30;;;;;;;10.32;4.30;;;27.10;96.30;;;;;;5071572;28;20164;-60
2023/06/09 11:12:56;;;;;;;9.25;4.55;;;27.20;97.20;;;;;;5071897;28;20066;-59
2023/06/09 11:15:23;;;;;;;8.50;4.43;;;27.30;96.90;;;;;;5059977;28;20480;-60
2023/06/09 11:17:53;;;;;;;9.45;4.53;;;27.40;96.80;;;;;;5051764;28;20036;-59
2023/06/09 11:20:23;;;;;;;9.15;4.90;;;27.50;96.60;;;;;;5051483;28;20037;-59
2023/06/09 11:22:48;;;;;;;8.70;4.63;;;27.50;96.10;;;;;;5051500;28;20120;-61
2023/06/09 11:25:17;;;;;;;8.65;4.47;;;27.60;96.40;;;;;;5054391;28;20154;-59
2023/06/09 11:27:45;;;;;;;10.73;4.53;;;27.80;96.30;;;;;;5063363;28;20037;-59
2023/06/09 11:30:18;;;;;;;7.63;4.35;;;28.00;95.90;;;;;;5053345;28;20132;-60
2023/06/09 11:32:51;;;;;;;7.20;4.47;;;28.10;95.10;;;;;;5071244;28;20142;-59
2023/06/09 11:35:29;;;;;;;8.80;4.53;;;28.20;94.60;;;;;;5065212;28;20103;-60
2023/06/09 11:38:05;;;;;;;6.25;4.20;;;28.30;94.10;;;;;;5070855;28;20534;-58
2023/06/09 11:40:35;;;;;;;12.23;4.18;;;28.40;94.30;;;;;;5071331;28;20074;-59
2023/06/09 11:43:02;;;;;;;9.27;4.43;;;28.50;94.60;;;;;;5071316;28;20380;-58
2023/06/09 11:45:31;;;;;;;8.35;4.32;;;28.60;94.00;;;;;;5070267;28;20040;-58
2023/06/09 11:47:59;;;;;;;9.95;3.60;;;28.70;93.70;;;;;;5071169;28;20157;-57
2023/06/09 11:50:35;;;;;;;10.07;4.30;;;28.80;93.40;;;;;;5069686;28;20099;-59
2023/06/09 11:53:17;;;;;;;7.57;4.13;;;28.90;93.20;;;;;;5070962;28;20107;-58
2023/06/09 11:55:43;;;;;;;10.60;4.13;;;28.90;92.80;;;;;;5070873;28;20392;-59
2023/06/09 11:58:12;;;;;;;9.38;4.40;;;29.00;92.90;;;;;;5069892;28;20048;-57
2023/06/09 12:00:43;;;;;;;7.75;4.35;;;29.10;92.50;;;;;;5070989;28;20044;-58
2023/06/09 12:03:10;;;;;;;7.57;3.95;;;29.20;92.50;;;;;;5070805;28;20735;-57
2023/06/09 12:05:35;;;;;;;8.75;4.50;;;29.20;92.30;;;;;;5052827;28;20090;-59
2023/06/09 12:08:01;;;;;;;8.05;3.85;;;29.40;92.10;;;;;;5059963;28;20119;-58
2023/06/09 12:10:28;;;;;;;9.13;4.38;;;29.40;91.70;;;;;;5052969;28;20021;-58
2023/06/09 12:12:56;;;;;;;9.75;4.20;;;29.50;91.70;;;;;;5051038;28;20037;-58
2023/06/09 12:15:23;;;;;;;6.57;3.85;;;29.60;91.30;;;;;;5050636;28;20090;-58
2023/06/09 12:17:50;;;;;;;7.60;4.10;;;29.70;91.50;;;;;;5050502;28;20140;-57
2023/06/09 12:20:29;;;;;;;7.97;4.30;;;29.80;91.20;;;;;;5055853;28;20044;-59
2023/06/09 12:23:13;;;;;;;7.60;3.88;;;29.90;90.60;;;;;;5059737;28;20041;-59
2023/06/09 12:25:43;;;;;;;11.05;3.88;;;30.00;91.10;;;;;;5051825;28;20040;-59
2023/06/09 12:28:16;;;;;;;7.60;4.35;;;30.10;90.90;;;;;;5052911;28;20108;-58
2023/06/09 12:30:50;;;;;;;8.30;3.90;;;30.30;90.50;;;;;;5063316;28;20404;-59
2023/06/09 12:33:21;;;;;;;7.55;4.40;;;30.40;90.10;;;;;;5068483;28;20129;-59
2023/06/09 12:35:49;;;;;;;6.28;3.65;;;30.40;90.40;;;;;;5065937;28;20121;-59
2023/06/09 12:38:15;;;;;;;7.32;4.00;;;30.50;90.40;;;;;;5053581;28;20045;-59
2023/06/09 12:40:56;;;;;;;5.57;3.80;;;30.60;90.10;;;;;;5050362;28;20044;-59
2023/06/09 12:43:24;;;;;;;5.63;3.75;;;30.70;88.70;;;;;;5052386;28;20051;-60